Time;durP1;ratioP1;P1;durP2;ratioP2;P2;SDS_P1;SDS_P2;PMS_P1;PMS_P2;Temp;Humidity;BMP_temperature;BMP_pressure;BME280_temperature;BME280_humidity;BME280_pressure;Samples;Min_cycle;Max_cycle;Signal;HPM_P1;HPM_P2
2021/12/25 00:02:15;;;;;;;13.62;5.97;;;;;;;0.81;84.83;97355.09;1707890;83;25601;-60
2021/12/25 00:04:41;;;;;;;9.58;5.15;;;;;;;0.75;84.87;97357.03;1707755;84;26073;-59
2021/12/25 00:07:07;;;;;;;16.42;7.40;;;;;;;0.70;84.72;97353.02;1707929;84;25270;-60
2021/12/25 00:09:34;;;;;;;14.15;7.15;;;;;;;0.66;84.82;97368.94;1708033;83;27439;-59
2021/12/25 00:12:05;;;;;;;13.83;7.12;;;;;;;0.65;84.97;97365.17;1707992;83;25993;-59
2021/12/25 00:14:34;;;;;;;12.35;6.28;;;;;;;0.68;84.98;97356.00;1707703;83;25405;-59
2021/12/25 00:17:01;;;;;;;9.55;5.28;;;;;;;0.71;85.00;97352.73;1707958;84;26063;-59
2021/12/25 00:19:27;;;;;;;12.10;5.67;;;;;;;0.72;85.18;97350.30;1707803;83;25595;-59
2021/12/25 00:21:54;;;;;;;14.15;7.17;;;;;;;0.72;84.96;97371.08;1708273;83;27576;-59
2021/12/25 00:24:21;;;;;;;13.40;6.10;;;;;;;0.69;85.09;97358.16;1708041;83;25607;-59
2021/12/25 00:27:01;;;;;;;10.95;5.30;;;;;;;0.67;84.90;97366.53;1708048;83;25433;-59
2021/12/25 00:32:13;;;;;;;13.40;7.10;;;;;;;0.64;85.00;97381.09;1708079;83;25406;-60
2021/12/25 00:34:24;;;;;;;;;;;;;;;0.65;85.08;97384.86;1708246;83;25695;-59
2021/12/25 00:36:51;;;;;;;12.90;6.83;;;;;;;0.66;85.08;97391.86;1707600;84;25926;-59
2021/12/25 00:39:17;;;;;;;11.93;5.85;;;;;;;0.64;85.08;97390.00;1708578;83;25378;-59
2021/12/25 00:41:43;;;;;;;11.85;5.97;;;;;;;0.65;85.25;97409.13;1708484;83;26137;-59
2021/12/25 00:44:10;;;;;;;10.13;4.97;;;;;;;0.60;85.43;97420.75;1708278;83;25377;-60
2021/12/25 00:46:36;;;;;;;7.95;4.10;;;;;;;0.59;85.44;97411.06;1707918;83;27412;-59
2021/12/25 00:49:02;;;;;;;10.50;5.53;;;;;;;0.55;85.46;97399.77;1708109;83;25913;-59
2021/12/25 00:51:29;;;;;;;11.83;5.87;;;;;;;0.55;85.49;97407.85;1707805;84;25733;-59
2021/12/25 00:53:55;;;;;;;14.73;7.58;;;;;;;0.54;85.42;97420.52;1708315;84;26083;-59
2021/12/25 00:56:21;;;;;;;9.75;5.80;;;;;;;0.55;85.35;97434.81;1707969;83;25405;-59
2021/12/25 00:58:47;;;;;;;9.68;5.65;;;;;;;0.55;85.42;97430.20;1706825;83;27332;-59
2021/12/25 01:01:14;;;;;;;10.32;5.15;;;;;;;0.61;85.47;97437.75;1701752;83;25601;-59
2021/12/25 01:03:40;;;;;;;9.80;5.35;;;;;;;0.65;85.42;97444.19;1698708;84;25649;-59
2021/12/25 01:06:07;;;;;;;9.20;5.83;;;;;;;0.64;85.40;97457.41;1699537;84;26054;-59
2021/12/25 01:08:33;;;;;;;12.55;5.83;;;;;;;0.61;85.30;97455.27;1699740;84;25644;-59
2021/12/25 01:11:00;;;;;;;10.40;5.62;;;;;;;0.59;85.37;97455.55;1699409;84;27436;-59
2021/12/25 01:13:34;;;;;;;15.88;8.25;;;;;;;0.58;85.48;97463.91;1699130;84;25489;-59
2021/12/25 01:16:15;;;;;;;;;;;;;;;0.59;85.32;97466.86;1701563;83;25479;-59
2021/12/25 01:21:10;;;;;;;13.40;6.90;;;;;;;0.66;85.07;97461.18;1699520;84;25676;-59
2021/12/25 01:31:47;;;;;;;14.45;6.97;;;;;;;0.73;85.32;97460.33;1699194;84;25624;-59
2021/12/25 01:36:45;;;;;;;13.30;7.10;;;;;;;0.68;85.13;97472.48;1669793;84;26183;-59
2021/12/25 01:49:37;;;;;;;19.27;10.18;;;;;;;0.81;84.98;97500.17;1704069;83;25650;-59
2021/12/25 01:52:06;;;;;;;17.82;10.53;;;;;;;0.75;85.01;97505.36;1696177;83;25461;-59
2021/12/25 01:54:33;;;;;;;19.87;10.10;;;;;;;0.71;85.12;97502.93;1737274;81;25431;-59
2021/12/25 01:57:00;;;;;;;27.62;12.60;;;;;;;0.69;85.03;97501.08;1737460;82;26898;-59
2021/12/25 01:59:27;;;;;;;21.45;11.65;;;;;;;0.67;84.94;97500.00;1737212;82;25672;-59
2021/12/25 02:01:54;;;;;;;15.00;8.90;;;;;;;0.72;85.14;97504.00;1737117;82;27596;-59
2021/12/25 02:04:21;;;;;;;16.00;8.55;;;;;;;0.78;85.01;97507.50;1704226;83;25616;-59
2021/12/25 02:06:47;;;;;;;20.20;10.20;;;;;;;0.81;84.89;97505.56;1697443;84;25813;-59
2021/12/25 02:09:13;;;;;;;14.13;8.18;;;;;;;0.78;84.74;97498.59;1744885;81;26182;-59
2021/12/25 02:11:39;;;;;;;15.60;7.95;;;;;;;0.77;84.87;97501.83;1704368;83;25726;-59
2021/12/25 02:14:05;;;;;;;20.90;9.75;;;;;;;0.78;85.00;97507.50;1698301;83;27427;-59
2021/12/25 02:16:49;;;;;;;18.45;8.40;;;;;;;0.79;84.95;97509.64;1737494;82;25660;-59
2021/12/25 02:19:20;;;;;;;17.55;8.90;;;;;;;0.81;84.87;97504.22;1704345;82;25595;-59
2021/12/25 02:21:39;;;;;;;19.05;10.15;;;;;;;0.82;84.50;97517.17;1697322;84;25692;-59
2021/12/25 02:24:11;;;;;;;19.67;9.88;;;;;;;0.81;84.62;97514.22;1737657;82;25650;-59
2021/12/25 02:26:40;;;;;;;19.37;9.33;;;;;;;0.90;84.84;97522.53;1737125;82;26807;-59
2021/12/25 02:29:07;;;;;;;19.17;10.18;;;;;;;0.92;84.71;97523.07;1704505;83;25489;-59
2021/12/25 02:31:34;;;;;;;20.02;9.38;;;;;;;0.90;84.66;97529.27;1697335;84;25441;-59
2021/12/25 02:34:00;;;;;;;50.17;25.30;;;;;;;0.87;84.62;97540.09;1737353;81;26180;-59
2021/12/25 02:36:39;;;;;;;25.77;13.08;;;;;;;0.81;84.45;97543.33;1736876;82;25673;-59
2021/12/25 02:39:05;;;;;;;56.13;22.70;;;;;;;0.79;84.46;97539.30;1736916;82;25977;-59
2021/12/25 02:41:31;;;;;;;21.82;10.72;;;;;;;0.82;84.39;97547.66;1736998;82;25505;-59
2021/12/25 02:43:57;;;;;;;43.15;16.55;;;;;;;0.81;84.31;97543.33;1736843;82;25486;-59
2021/12/25 02:46:25;;;;;;;30.35;13.72;;;;;;;0.85;84.47;97546.29;1738079;82;26104;-59
2021/12/25 02:48:55;;;;;;;23.57;12.53;;;;;;;0.89;84.55;97554.64;1739448;82;25554;-59
2021/12/25 02:51:19;;;;;;;32.90;17.60;;;;;;;0.89;84.53;97554.09;1739256;82;25879;-59
2021/12/25 02:53:46;;;;;;;22.35;11.95;;;;;;;0.87;84.23;97558.41;1739692;82;25598;-59
2021/12/25 02:56:12;;;;;;;22.13;10.65;;;;;;;0.83;84.27;97553.84;1739263;82;25623;-59
2021/12/25 02:58:38;;;;;;;33.90;18.23;;;;;;;0.74;84.13;97553.09;1739165;82;26068;-59
2021/12/25 03:01:18;;;;;;;22.80;11.22;;;;;;;0.77;84.44;97561.16;1739601;82;25480;-59
2021/12/25 03:03:45;;;;;;;21.00;10.38;;;;;;;0.76;84.08;97566.30;1739225;82;27440;-59
2021/12/25 03:06:13;;;;;;;19.23;9.70;;;;;;;0.74;84.16;97568.45;1739080;82;25420;-59
2021/12/25 03:08:41;;;;;;;19.05;10.50;;;;;;;0.75;83.85;97570.08;1739507;82;25682;-60
2021/12/25 03:11:08;;;;;;;18.45;9.88;;;;;;;0.73;84.06;97576.28;1739126;82;26056;-60
2021/12/25 03:13:43;;;;;;;18.30;10.23;;;;;;;0.67;84.08;97569.30;1739636;82;25668;-59
2021/12/25 03:16:09;;;;;;;21.25;11.18;;;;;;;0.66;84.11;97570.38;1738141;82;25789;-60
2021/12/25 03:18:45;;;;;;;19.15;10.30;;;;;;;0.66;84.28;97569.04;1739171;82;25592;-59
2021/12/25 03:21:08;;;;;;;20.57;11.15;;;;;;;0.66;84.00;97571.73;1739218;82;25585;-60
2021/12/25 03:23:36;;;;;;;20.10;10.48;;;;;;;0.63;83.94;97575.77;1739445;82;26081;-60
2021/12/25 03:26:05;;;;;;;21.80;12.43;;;;;;;0.64;84.09;97575.23;1739437;82;25677;-59
2021/12/25 03:28:36;;;;;;;21.82;12.88;;;;;;;0.60;84.01;97585.22;1739582;82;27498;-59
2021/12/25 03:31:07;;;;;;;19.15;10.88;;;;;;;0.58;84.20;97590.07;1739293;82;25735;-60
2021/12/25 03:33:34;;;;;;;17.30;9.60;;;;;;;0.58;84.33;97586.59;1739476;82;25651;-60
2021/12/25 03:36:03;;;;;;;15.30;8.58;;;;;;;0.59;84.24;97576.87;1739223;82;26033;-60
2021/12/25 03:38:30;;;;;;;19.50;9.63;;;;;;;0.58;84.24;97599.50;1705821;84;25647;-59
2021/12/25 03:40:59;;;;;;;19.80;11.03;;;;;;;0.57;84.03;97591.69;1706098;84;28275;-60
2021/12/25 03:43:25;;;;;;;16.50;10.15;;;;;;;0.59;84.04;97598.45;1699471;84;25818;-60
2021/12/25 03:45:52;;;;;;;12.70;6.08;;;;;;;0.60;83.85;97601.93;1742945;81;25604;-60
2021/12/25 03:58:59;;;;;;;12.90;7.60;;;;;;;-0.15;82.42;97623.05;1712448;83;25447;-60
2021/12/25 04:01:40;;;;;;;13.20;7.22;;;;;;;-0.16;83.26;97641.11;1756325;81;26096;-60
2021/12/25 04:04:11;;;;;;;12.90;7.03;;;;;;;-0.09;83.42;97650.25;1712749;83;25508;-59
2021/12/25 04:06:36;;;;;;;10.28;5.92;;;;;;;-0.10;83.15;97650.52;1745537;82;26891;-60
2021/12/25 04:09:10;;;;;;;11.50;5.67;;;;;;;-0.18;83.07;97654.55;1712395;83;25775;-59
2021/12/25 04:11:34;;;;;;;9.98;5.42;;;;;;;-0.23;83.03;97657.25;1745666;81;25478;-59
2021/12/25 04:14:00;;;;;;;5.90;3.50;;;;;;;-0.29;83.04;97661.27;1712569;83;25782;-59
2021/12/25 04:16:26;;;;;;;15.90;8.30;;;;;;;-0.36;83.26;97651.84;1712501;83;25657;-59
2021/12/25 04:18:54;;;;;;;17.00;9.35;;;;;;;-0.44;83.16;97670.66;1682604;84;27641;-59
2021/12/25 04:21:20;;;;;;;24.80;12.28;;;;;;;-0.47;83.45;97672.54;1712518;83;25657;-59
2021/12/25 04:23:47;;;;;;;11.28;5.92;;;;;;;-0.41;83.72;97674.17;1756171;81;25635;-59
2021/12/25 04:26:13;;;;;;;11.22;5.95;;;;;;;-0.39;83.21;97675.55;1712470;83;27173;-59
2021/12/25 04:29:00;;;;;;;6.60;3.67;;;;;;;-0.56;82.64;97679.80;1712716;83;25633;-59
2021/12/25 05:03:42;;;;;;;4.80;2.72;;;;;;;-1.72;82.91;97734.55;1705887;83;25642;-60
2021/12/25 05:06:01;;;;;;;5.35;3.15;;;;;;;-1.82;83.00;97731.23;1695996;83;25648;-61
2021/12/25 05:08:28;;;;;;;9.48;5.70;;;;;;;-1.87;83.18;97747.33;1697022;84;25413;-61
2021/12/25 05:10:54;;;;;;;5.45;3.10;;;;;;;-1.83;83.20;97753.80;1698056;84;27524;-61
2021/12/25 05:13:21;;;;;;;8.90;5.85;;;;;;;-1.83;83.29;97751.11;1698053;84;25691;-61
2021/12/25 05:15:47;;;;;;;5.60;3.40;;;;;;;-1.84;83.23;97757.53;1698327;84;25740;-61
2021/12/25 05:18:14;;;;;;;4.53;2.77;;;;;;;-1.84;82.52;97760.77;1697974;83;26392;-61
2021/12/25 05:20:41;;;;;;;6.87;3.45;;;;;;;-2.00;81.05;97768.67;1739761;82;25658;-61
2021/12/25 05:23:07;;;;;;;9.28;4.20;;;;;;;-2.07;81.28;97773.44;1739587;82;27690;-61
2021/12/25 05:25:34;;;;;;;9.08;4.05;;;;;;;-2.00;81.80;97774.56;1739156;82;25597;-61
2021/12/25 05:28:02;;;;;;;18.27;6.03;;;;;;;-2.00;81.36;97786.12;1739469;82;25392;-61
2021/12/25 05:30:30;;;;;;;11.53;4.05;;;;;;;-1.99;81.05;97789.63;1706861;82;26114;-61
2021/12/25 05:32:57;;;;;;;13.78;5.22;;;;;;;-2.02;80.60;97795.77;1706037;83;25574;-62
2021/12/25 05:35:23;;;;;;;15.40;5.53;;;;;;;-2.08;80.22;97806.18;1676211;84;27512;-61
2021/12/25 05:37:57;;;;;;;13.18;4.87;;;;;;;-2.17;80.12;97814.39;1705805;83;25773;-61
2021/12/25 05:40:18;;;;;;;14.65;5.62;;;;;;;-2.15;80.21;97808.25;1697020;83;25742;-61
2021/12/25 05:42:44;;;;;;;12.23;4.10;;;;;;;-2.15;80.38;97806.91;1697367;84;26148;-61
2021/12/25 05:45:10;;;;;;;11.35;4.55;;;;;;;-2.18;79.12;97810.92;1739475;82;25649;-61
2021/12/25 05:47:37;;;;;;;2.25;1.15;;;;;;;-2.15;80.14;97817.12;1739427;82;27571;-61
2021/12/25 05:50:05;;;;;;;7.33;3.75;;;;;;;-2.24;78.48;97819.15;1739447;82;25681;-61
2021/12/25 05:52:31;;;;;;;4.55;2.27;;;;;;;-2.33;79.24;97819.58;1706614;82;25390;-62
2021/12/25 05:54:57;;;;;;;10.55;4.67;;;;;;;-2.40;79.47;97815.75;1739822;81;26151;-61
2021/12/25 05:57:24;;;;;;;14.13;4.70;;;;;;;-2.41;80.39;97814.14;1706387;83;25659;-62
2021/12/25 05:59:50;;;;;;;8.65;4.20;;;;;;;-2.42;80.18;97819.76;1739935;81;28467;-62
2021/12/25 06:02:17;;;;;;;7.50;2.72;;;;;;;-2.50;79.95;97821.52;1706346;83;25468;-62
2021/12/25 06:04:43;;;;;;;6.60;2.45;;;;;;;-2.56;79.72;97818.76;1739587;81;25712;-62
2021/12/25 06:07:09;;;;;;;12.60;5.20;;;;;;;-2.65;79.94;97830.45;1739408;82;25710;-61
2021/12/25 06:09:36;;;;;;;7.50;3.00;;;;;;;-2.70;80.06;97845.16;1706304;83;25682;-61
2021/12/25 06:12:06;;;;;;;11.10;4.55;;;;;;;-2.66;80.36;97843.59;1739732;81;27502;-61
2021/12/25 06:14:32;;;;;;;6.50;3.10;;;;;;;-2.69;80.15;97854.81;1706490;83;25821;-61
2021/12/25 06:16:58;;;;;;;5.50;2.87;;;;;;;-2.72;80.60;97856.64;1739833;81;25514;-62
2021/12/25 06:19:24;;;;;;;9.50;3.55;;;;;;;-2.72;80.65;97865.21;1706189;83;28198;-61
2021/12/25 06:21:51;;;;;;;4.53;2.72;;;;;;;-2.66;80.80;97870.94;1740246;81;25416;-61
2021/12/25 06:24:17;;;;;;;5.22;2.05;;;;;;;-2.68;80.21;97873.07;1706248;83;27477;-61
2021/12/25 06:26:44;;;;;;;4.35;2.55;;;;;;;-2.70;80.39;97872.49;1686129;84;25607;-61
2021/12/25 06:29:14;;;;;;;25.75;9.48;;;;;;;-2.79;80.21;97860.83;1686182;85;25674;-61
2021/12/25 06:31:39;;;;;;;27.55;10.60;;;;;;;-2.81;80.52;97863.48;1706586;83;25586;-61
2021/12/25 06:34:07;;;;;;;12.45;4.85;;;;;;;-2.78;80.94;97858.45;1739510;81;25403;-61
2021/12/25 06:36:34;;;;;;;6.92;3.75;;;;;;;-2.78;80.79;97854.95;1706311;83;28752;-61
2021/12/25 06:39:00;;;;;;;11.25;4.17;;;;;;;-2.83;80.58;97858.88;1740200;82;25439;-62
2021/12/25 06:41:28;;;;;;;14.05;5.17;;;;;;;-2.89;80.64;97868.73;1739422;82;25479;-61
2021/12/25 06:43:55;;;;;;;10.63;5.12;;;;;;;-2.93;80.77;97873.76;1706227;83;26131;-61
2021/12/25 06:46:21;;;;;;;28.75;12.85;;;;;;;-2.96;80.84;97878.30;1739882;81;25581;-61
2021/12/25 06:48:47;;;;;;;16.52;8.43;;;;;;;-2.95;81.09;97879.09;1755819;81;27420;-61
2021/12/25 06:51:14;;;;;;;19.98;8.95;;;;;;;-2.95;80.92;97883.94;1712146;83;25737;-62
2021/12/25 06:53:40;;;;;;;183.78;67.03;;;;;;;-3.06;79.79;97878.11;1745389;82;25719;-62
2021/12/25 06:56:06;;;;;;;159.75;51.40;;;;;;;-3.08;80.66;97889.08;1699252;83;26076;-61
2021/12/25 06:58:33;;;;;;;188.27;66.45;;;;;;;-3.20;79.92;97890.50;1745283;82;25415;-61
2021/12/25 07:00:59;;;;;;;166.80;55.43;;;;;;;-3.24;80.58;97903.28;1745379;82;27569;-61
2021/12/25 07:03:25;;;;;;;165.88;58.00;;;;;;;-3.16;80.99;97896.98;1698989;84;25754;-61
2021/12/25 07:05:52;;;;;;;148.72;47.40;;;;;;;-3.11;80.86;97899.48;1745738;82;25629;-61
2021/12/25 07:08:18;;;;;;;52.53;19.90;;;;;;;-3.10;80.39;97896.56;1699026;83;26048;-61
2021/12/25 07:10:44;;;;;;;107.10;35.25;;;;;;;-3.13;80.08;97902.93;1745353;82;25408;-61
2021/12/25 07:13:16;;;;;;;45.45;11.53;;;;;;;-3.06;80.70;97897.70;1699030;84;27426;-61
2021/12/25 07:15:39;;;;;;;25.37;6.72;;;;;;;-3.03;80.11;97902.58;1745667;81;25584;-62
2021/12/25 07:18:06;;;;;;;25.50;7.87;;;;;;;-3.14;79.73;97908.81;1712219;83;25423;-61
2021/12/25 07:20:32;;;;;;;13.25;4.58;;;;;;;-3.30;80.10;97911.77;1712363;83;26250;-63
2021/12/25 07:22:58;;;;;;;13.30;5.42;;;;;;;-3.43;80.01;97906.17;1755661;81;25446;-62
2021/12/25 07:25:25;;;;;;;31.15;9.30;;;;;;;-3.54;79.81;97906.54;1712488;83;27430;-62
2021/12/25 07:27:51;;;;;;;51.63;15.25;;;;;;;-3.63;80.17;97921.36;1712389;83;25664;-62
2021/12/25 07:30:18;;;;;;;54.20;15.55;;;;;;;-3.66;80.63;97919.95;1755653;81;25688;-61
2021/12/25 07:32:44;;;;;;;35.63;10.95;;;;;;;-3.63;80.77;97924.04;1699268;83;26055;-61
2021/12/25 07:35:11;;;;;;;18.25;6.75;;;;;;;-3.63;80.67;97922.16;1745291;82;25689;-62
2021/12/25 07:37:37;;;;;;;16.32;4.60;;;;;;;-3.65;80.37;97931.77;1712189;83;27436;-61
2021/12/25 07:40:06;;;;;;;26.35;8.35;;;;;;;-3.71;80.17;97932.72;1712082;83;27062;-62
2021/12/25 07:42:33;;;;;;;54.40;20.35;;;;;;;-3.73;80.55;97930.82;1756055;81;25675;-61
2021/12/25 07:45:04;;;;;;;24.87;10.93;;;;;;;-3.61;80.96;97934.79;1699122;84;26111;-61
2021/12/25 07:47:27;;;;;;;15.35;6.92;;;;;;;-3.53;80.13;97938.44;1745409;82;25151;-61
2021/12/25 07:49:56;;;;;;;12.23;5.78;;;;;;;-3.61;78.60;97938.81;1712135;83;27412;-62
2021/12/25 07:52:22;;;;;;;23.50;10.18;;;;;;;-3.71;78.52;97943.42;1745084;81;25734;-62
2021/12/25 07:54:48;;;;;;;8.03;4.12;;;;;;;-3.70;79.54;97942.40;1699342;84;25529;-60
2021/12/25 07:57:15;;;;;;;10.38;4.70;;;;;;;-3.80;77.89;97951.58;1745239;82;28129;-61
2021/12/25 07:59:41;;;;;;;16.42;6.60;;;;;;;-3.89;78.28;97951.66;1712156;83;25381;-61
2021/12/25 08:02:08;;;;;;;13.55;5.33;;;;;;;-3.88;78.65;97954.09;1712252;83;27437;-61
2021/12/25 08:04:35;;;;;;;17.70;7.03;;;;;;;-3.92;78.26;97948.91;1755956;81;25556;-60
2021/12/25 08:07:01;;;;;;;14.75;5.83;;;;;;;-3.84;78.99;97958.43;1712046;82;25691;-61
2021/12/25 08:09:31;;;;;;;15.05;6.33;;;;;;;-3.77;78.12;97964.48;1745687;82;26506;-61
2021/12/25 08:12:00;;;;;;;14.40;6.70;;;;;;;-3.82;77.85;97966.53;1712566;83;25642;-61
